createdAt,value
2019-02-28T00:01:25.975Z,7.00
2019-02-28T00:03:58.016Z,7.00
2019-02-28T00:06:26.473Z,6.90
2019-02-28T00:08:55.861Z,6.90
2019-02-28T00:11:25.242Z,6.90
2019-02-28T00:13:55.981Z,6.80
2019-02-28T00:16:25.724Z,6.80
2019-02-28T00:18:55.079Z,6.80
2019-02-28T00:21:24.464Z,6.70
2019-02-28T00:23:57.268Z,6.80
2019-02-28T00:26:25.041Z,6.80
2019-02-28T00:28:56.986Z,6.70
2019-02-28T00:31:25.491Z,6.80
2019-02-28T00:33:54.992Z,6.80
2019-02-28T00:36:24.350Z,6.80
2019-02-28T00:38:53.817Z,6.70
2019-02-28T00:41:23.207Z,6.70
2019-02-28T00:43:52.602Z,6.70
2019-02-28T00:46:29.384Z,6.70
2019-02-28T00:48:58.744Z,6.60
2019-02-28T00:51:29.765Z,6.50
2019-02-28T00:53:59.238Z,6.40
2019-02-28T00:56:28.601Z,6.20
2019-02-28T00:59:00.537Z,6.10
2019-02-28T01:01:29.023Z,6.10
2019-02-28T01:03:59.095Z,6.10
2019-02-28T01:06:28.560Z,6.10
2019-02-28T01:08:59.121Z,6.20
2019-02-28T01:11:28.463Z,6.20
2019-02-28T01:13:58.084Z,6.20
2019-02-28T01:16:28.954Z,6.20
2019-02-28T01:18:58.341Z,6.10
2019-02-28T01:21:27.757Z,6.10
2019-02-28T01:24:00.523Z,6.10
2019-02-28T01:26:28.240Z,6.00
2019-02-28T01:29:01.374Z,6.00
2019-02-28T01:31:29.828Z,5.90
2019-02-28T01:33:59.380Z,5.90
2019-02-28T01:36:28.844Z,5.80
2019-02-28T01:38:58.863Z,5.80
2019-02-28T01:41:28.300Z,5.80
2019-02-28T01:43:57.669Z,5.80
2019-02-28T01:46:27.095Z,5.70
2019-02-28T01:48:56.461Z,5.70
2019-02-28T01:51:25.842Z,5.70
2019-02-28T01:53:55.222Z,5.70
2019-02-28T01:56:24.626Z,5.70
2019-02-28T01:58:54.045Z,5.70
2019-02-28T02:01:23.486Z,5.70
2019-02-28T02:03:52.853Z,5.70
2019-02-28T02:06:22.585Z,5.60
2019-02-28T02:08:53.374Z,5.60
2019-02-28T02:11:23.172Z,5.70
2019-02-28T02:13:52.545Z,5.70
2019-02-28T02:16:26.792Z,5.70
2019-02-28T02:18:53.036Z,5.80
2019-02-28T02:21:22.411Z,5.80
2019-02-28T02:23:52.973Z,5.80
2019-02-28T02:26:22.884Z,5.80
2019-02-28T02:28:53.778Z,5.80
2019-02-28T02:31:27.575Z,5.80
2019-02-28T02:33:54.214Z,5.80
2019-02-28T02:36:23.593Z,5.80
2019-02-28T02:38:53.015Z,5.80
2019-02-28T02:41:22.396Z,5.80
2019-02-28T02:43:54.930Z,5.80
2019-02-28T02:46:22.958Z,5.70
2019-02-28T02:48:52.350Z,5.80
2019-02-28T02:51:21.706Z,5.80
2019-02-28T02:53:51.054Z,5.80
2019-02-28T02:56:20.433Z,5.80
2019-02-28T02:58:49.866Z,5.80
2019-02-28T03:01:23.175Z,5.80
2019-02-28T03:03:50.535Z,5.80
2019-02-28T03:06:19.916Z,5.70
2019-02-28T03:08:49.294Z,5.70
2019-02-28T03:11:18.667Z,5.70
2019-02-28T03:13:48.109Z,5.70
2019-02-28T03:16:17.465Z,5.70
2019-02-28T03:18:46.822Z,5.70
2019-02-28T03:21:16.587Z,5.70
2019-02-28T03:23:46.056Z,5.70
2019-02-28T03:26:15.461Z,5.80
2019-02-28T03:28:44.812Z,5.90
2019-02-28T03:31:15.689Z,5.80
2019-02-28T03:33:45.357Z,5.80
2019-02-28T03:36:15.613Z,5.70
2019-02-28T03:38:49.595Z,5.70
2019-02-28T03:41:18.168Z,5.60
2019-02-28T03:43:47.782Z,5.60
2019-02-28T03:46:17.260Z,5.50
2019-02-28T03:48:46.671Z,5.50
2019-02-28T03:51:16.040Z,5.50
2019-02-28T03:53:47.934Z,5.50
2019-02-28T03:56:16.606Z,5.50
2019-02-28T03:58:46.028Z,5.40
2019-02-28T04:01:16.389Z,5.40
2019-02-28T04:03:46.208Z,5.40
2019-02-28T04:06:15.565Z,5.30
2019-02-28T04:08:44.959Z,5.30
2019-02-28T04:11:14.385Z,5.30
2019-02-28T04:13:43.909Z,5.30
2019-02-28T04:16:13.287Z,5.20
2019-02-28T04:18:46.161Z,5.30
2019-02-28T04:21:13.800Z,5.30
2019-02-28T04:23:43.177Z,5.20
2019-02-28T04:26:12.542Z,5.20
2019-02-28T04:28:43.454Z,5.20
2019-02-28T04:31:18.705Z,5.10
2019-02-28T04:33:44.093Z,5.10
2019-02-28T04:36:13.563Z,5.00
2019-02-28T04:38:44.468Z,5.00
2019-02-28T04:41:13.844Z,5.00
2019-02-28T04:43:44.367Z,4.90
2019-02-28T04:46:14.502Z,4.90
2019-02-28T04:48:45.689Z,4.80
2019-02-28T04:51:16.027Z,4.90
2019-02-28T04:53:45.378Z,4.80
2019-02-28T04:56:14.735Z,4.80
2019-02-28T04:58:44.105Z,4.80
2019-02-28T05:01:13.561Z,4.80
2019-02-28T05:03:42.988Z,4.80
2019-02-28T05:06:12.372Z,4.80
2019-02-28T05:08:41.903Z,4.80
2019-02-28T05:11:11.264Z,4.80
2019-02-28T05:13:41.213Z,4.80
2019-02-28T05:16:12.303Z,4.90
2019-02-28T05:18:41.735Z,4.90
2019-02-28T05:21:11.093Z,5.00
2019-02-28T05:23:40.477Z,5.00
2019-02-28T05:26:09.817Z,5.00
2019-02-28T05:28:41.234Z,5.00
2019-02-28T05:31:11.872Z,5.00
2019-02-28T05:33:41.907Z,5.00
2019-02-28T05:36:12.271Z,5.00
2019-02-28T05:38:41.699Z,4.90
2019-02-28T05:41:12.127Z,4.90
2019-02-28T05:43:42.571Z,4.90
2019-02-28T05:46:11.929Z,4.80
2019-02-28T05:48:41.310Z,4.80
2019-02-28T05:51:10.665Z,4.70
2019-02-28T05:53:41.267Z,4.80
2019-02-28T05:56:11.089Z,4.80
2019-02-28T05:58:40.448Z,4.70
2019-02-28T06:01:11.812Z,4.70
2019-02-28T06:03:40.913Z,4.70
2019-02-28T06:06:10.342Z,4.70
2019-02-28T06:08:40.043Z,4.70
2019-02-28T06:11:09.532Z,4.70
2019-02-28T06:13:38.880Z,4.60
2019-02-28T06:16:11.280Z,4.70
2019-02-28T06:18:39.330Z,4.70
2019-02-28T06:21:10.135Z,4.70
2019-02-28T06:23:40.794Z,4.70
2019-02-28T06:26:12.000Z,4.70
2019-02-28T06:28:41.388Z,4.80
2019-02-28T06:31:14.283Z,4.90
2019-02-28T06:33:42.901Z,4.90
2019-02-28T06:36:12.280Z,5.00
2019-02-28T06:38:41.704Z,5.00
2019-02-28T06:41:11.057Z,5.20
2019-02-28T06:43:40.445Z,5.20
2019-02-28T06:46:09.888Z,5.20
2019-02-28T06:48:39.347Z,5.20
2019-02-28T06:51:08.779Z,5.20
2019-02-28T06:53:39.382Z,5.30
2019-02-28T06:56:08.801Z,5.30
2019-02-28T06:58:38.164Z,5.40
2019-02-28T07:01:07.538Z,5.50
2019-02-28T07:03:38.818Z,5.50
2019-02-28T07:06:07.949Z,5.60
2019-02-28T07:08:37.476Z,5.60
2019-02-28T07:11:06.833Z,5.60
2019-02-28T07:13:38.777Z,5.70
2019-02-28T07:16:07.267Z,5.80
2019-02-28T07:18:36.681Z,5.80
2019-02-28T07:21:07.881Z,5.90
2019-02-28T07:23:37.105Z,6.00
2019-02-28T07:26:06.558Z,6.00
2019-02-28T07:28:37.379Z,6.10
2019-02-28T07:31:07.220Z,6.10
2019-02-28T07:33:36.613Z,6.20
2019-02-28T07:36:09.454Z,6.20
2019-02-28T07:38:37.049Z,6.20
2019-02-28T07:41:07.964Z,6.30
2019-02-28T07:43:37.819Z,6.30
2019-02-28T07:46:07.782Z,6.40
2019-02-28T07:48:38.217Z,6.40
2019-02-28T07:51:08.239Z,6.50
2019-02-28T07:53:40.896Z,6.50
2019-02-28T07:56:08.769Z,6.50
2019-02-28T07:58:38.230Z,6.50
2019-02-28T08:01:07.748Z,6.50
2019-02-28T08:03:37.190Z,6.60
2019-02-28T08:06:06.645Z,6.50
2019-02-28T08:08:36.255Z,6.60
2019-02-28T08:11:05.740Z,6.70
2019-02-28T08:13:37.856Z,6.70
2019-02-28T08:16:06.304Z,6.70
2019-02-28T08:18:38.551Z,6.80
2019-02-28T08:21:08.737Z,6.80
2019-02-28T08:23:39.094Z,6.90
2019-02-28T08:26:08.516Z,7.10
2019-02-28T08:28:38.231Z,7.60
2019-02-28T08:31:07.997Z,7.90
2019-02-28T08:33:37.432Z,7.90
2019-02-28T08:36:11.617Z,8.20
2019-02-28T08:38:38.969Z,8.20
2019-02-28T08:41:08.337Z,8.20
2019-02-28T08:43:37.704Z,8.30
2019-02-28T08:46:11.120Z,8.20
2019-02-28T08:48:38.228Z,8.30
2019-02-28T08:51:07.703Z,8.40
2019-02-28T08:53:37.099Z,8.50
2019-02-28T08:56:06.678Z,8.60
2019-02-28T08:58:37.652Z,8.70
2019-02-28T09:01:07.843Z,8.80
2019-02-28T09:03:37.230Z,8.90
2019-02-28T09:06:07.499Z,9.00
2019-02-28T09:08:37.028Z,9.10
2019-02-28T09:11:06.502Z,9.10
2019-02-28T09:13:35.911Z,9.10
2019-02-28T09:16:05.629Z,9.20
2019-02-28T09:18:35.057Z,9.20
2019-02-28T09:21:04.543Z,9.30
2019-02-28T09:23:34.419Z,9.30
2019-02-28T09:26:05.955Z,9.40
2019-02-28T09:28:35.323Z,9.40
2019-02-28T09:31:06.030Z,9.50
2019-02-28T09:33:35.641Z,9.70
2019-02-28T09:36:06.035Z,9.70
2019-02-28T09:38:35.458Z,9.80
2019-02-28T09:41:05.849Z,9.80
2019-02-28T09:43:35.263Z,9.90
2019-02-28T09:46:05.553Z,9.90
2019-02-28T09:48:37.216Z,10.00
2019-02-28T09:51:06.001Z,10.00
2019-02-28T09:53:35.441Z,10.00
2019-02-28T09:56:09.030Z,10.20
2019-02-28T09:58:36.730Z,10.20
2019-02-28T10:01:06.333Z,10.20
2019-02-28T10:03:35.694Z,10.30
2019-02-28T10:06:05.646Z,10.40
2019-02-28T10:08:36.628Z,10.40
2019-02-28T10:11:06.289Z,10.50
2019-02-28T10:13:35.745Z,10.70
2019-02-28T10:16:05.705Z,10.70
2019-02-28T10:18:35.513Z,10.60
2019-02-28T10:21:06.363Z,10.90
2019-02-28T10:23:35.745Z,11.20
2019-02-28T10:26:05.372Z,11.30
2019-02-28T10:28:34.772Z,11.50
2019-02-28T10:31:05.132Z,11.70
2019-02-28T10:33:34.494Z,11.80
2019-02-28T10:36:03.946Z,11.90
2019-02-28T10:38:33.922Z,12.10
2019-02-28T10:41:03.484Z,12.20
2019-02-28T10:43:32.928Z,12.60
2019-02-28T10:46:02.432Z,12.50
2019-02-28T10:48:31.856Z,12.40
2019-02-28T10:51:01.236Z,12.50
2019-02-28T10:53:30.757Z,12.60
2019-02-28T10:56:00.296Z,12.40
2019-02-28T10:58:29.748Z,12.60
2019-02-28T11:00:59.185Z,12.80
2019-02-28T11:03:32.259Z,12.80
2019-02-28T11:06:00.784Z,12.70
2019-02-28T11:08:30.145Z,12.50
2019-02-28T11:11:00.668Z,12.80
2019-02-28T11:13:31.942Z,12.80
2019-02-28T11:16:01.337Z,13.00
2019-02-28T11:18:30.869Z,13.00
2019-02-28T11:21:00.386Z,12.90
2019-02-28T11:23:29.856Z,13.00
2019-02-28T11:26:01.243Z,13.00
2019-02-28T11:28:31.054Z,12.80
2019-02-28T11:31:00.707Z,12.70
2019-02-28T11:33:30.225Z,12.70
2019-02-28T11:35:59.747Z,12.90
2019-02-28T11:38:29.235Z,12.80
2019-02-28T11:40:58.759Z,12.50
2019-02-28T11:43:28.383Z,12.50
2019-02-28T11:46:00.643Z,12.10
2019-02-28T11:48:29.173Z,11.60
2019-02-28T11:50:58.617Z,11.30
2019-02-28T11:53:28.117Z,11.30
2019-02-28T11:55:57.580Z,11.40
2019-02-28T11:58:27.036Z,11.20
2019-02-28T12:00:56.533Z,11.30
2019-02-28T12:03:25.978Z,11.30
2019-02-28T12:05:55.514Z,11.30
2019-02-28T12:08:25.015Z,11.40
2019-02-28T12:10:54.483Z,11.60
2019-02-28T12:13:23.940Z,11.70
2019-02-28T12:15:53.309Z,11.80
2019-02-28T12:18:22.854Z,11.70
2019-02-28T12:20:52.487Z,12.00
2019-02-28T12:23:24.338Z,12.00
2019-02-28T12:25:53.894Z,12.30
2019-02-28T12:28:23.497Z,12.40
2019-02-28T12:30:52.877Z,12.50
2019-02-28T12:33:23.362Z,12.30
2019-02-28T12:35:54.738Z,12.40
2019-02-28T12:38:25.975Z,12.40
2019-02-28T12:40:55.421Z,12.70
2019-02-28T12:43:24.775Z,12.50
2019-02-28T12:45:56.849Z,12.60
2019-02-28T12:48:27.029Z,12.80
2019-02-28T12:50:56.867Z,12.90
2019-02-28T12:53:26.248Z,13.00
2019-02-28T12:55:55.752Z,12.90
2019-02-28T12:58:25.165Z,12.90
2019-02-28T13:00:56.457Z,12.90
2019-02-28T13:03:25.622Z,13.00
2019-02-28T13:05:55.050Z,13.10
2019-02-28T13:08:24.573Z,13.10
2019-02-28T13:10:54.250Z,13.20
2019-02-28T13:13:27.473Z,13.30
2019-02-28T13:15:54.825Z,13.50
2019-02-28T13:18:25.331Z,13.60
2019-02-28T13:20:54.694Z,13.00
2019-02-28T13:23:24.135Z,12.80
2019-02-28T13:25:59.180Z,12.90
2019-02-28T13:28:24.563Z,13.00
2019-02-28T13:30:54.289Z,13.30
2019-02-28T13:33:23.682Z,13.40
2019-02-28T13:35:53.172Z,13.50
2019-02-28T13:38:22.773Z,13.50
2019-02-28T13:40:52.220Z,13.60
2019-02-28T13:43:22.842Z,13.80
2019-02-28T13:45:55.916Z,13.80
2019-02-28T13:48:26.525Z,13.80
2019-02-28T13:50:55.010Z,13.80
2019-02-28T13:53:30.531Z,13.70
2019-02-28T13:55:59.471Z,13.70
2019-02-28T13:58:28.844Z,13.50
2019-02-28T14:00:59.815Z,13.50
2019-02-28T14:03:29.259Z,13.70
2019-02-28T14:05:58.622Z,13.60
2019-02-28T14:08:28.043Z,13.60
2019-02-28T14:10:57.654Z,13.50
2019-02-28T14:13:30.058Z,13.40
2019-02-28T14:15:58.166Z,13.30
2019-02-28T14:18:27.614Z,13.20
2019-02-28T14:20:59.443Z,13.20
2019-02-28T14:23:28.121Z,13.10
2019-02-28T14:25:57.553Z,13.10
2019-02-28T14:28:27.064Z,13.10
2019-02-28T14:30:57.600Z,13.00
2019-02-28T14:33:27.640Z,12.90
2019-02-28T14:35:57.069Z,12.90
2019-02-28T14:38:29.596Z,12.90
2019-02-28T14:40:59.357Z,12.80
2019-02-28T14:43:28.871Z,12.80
2019-02-28T14:45:58.391Z,12.80
2019-02-28T14:48:27.737Z,12.80
2019-02-28T14:50:58.871Z,12.80
2019-02-28T14:53:28.448Z,12.90
2019-02-28T14:55:57.910Z,12.90
2019-02-28T14:58:27.394Z,13.00
2019-02-28T15:00:56.902Z,12.90
2019-02-28T15:03:26.340Z,12.90
2019-02-28T15:05:56.263Z,13.00
2019-02-28T15:08:28.617Z,13.00
2019-02-28T15:10:58.229Z,12.90
2019-02-28T15:13:30.383Z,13.00
2019-02-28T15:15:58.893Z,12.90
2019-02-28T15:18:28.644Z,12.80
2019-02-28T15:20:57.990Z,12.70
2019-02-28T15:23:30.903Z,12.70
2019-02-28T15:26:00.113Z,12.70
2019-02-28T15:28:29.585Z,12.60
2019-02-28T15:30:59.010Z,12.40
2019-02-28T15:33:30.573Z,12.40
2019-02-28T15:35:59.501Z,12.20
2019-02-28T15:38:28.948Z,11.90
2019-02-28T15:40:58.791Z,11.70
2019-02-28T15:43:28.969Z,11.60
2019-02-28T15:45:58.323Z,11.40
2019-02-28T15:48:27.701Z,11.40
2019-02-28T15:50:58.602Z,11.40
2019-02-28T15:53:28.090Z,11.30
2019-02-28T15:58:49.433Z,11.50
2019-02-28T16:01:17.433Z,11.50
2019-02-28T16:03:48.419Z,11.40
2019-02-28T16:06:19.772Z,11.50
2019-02-28T16:08:49.072Z,11.40
2019-02-28T16:11:18.506Z,11.40
2019-02-28T16:13:47.881Z,11.40
2019-02-28T16:16:17.329Z,11.30
2019-02-28T16:18:47.294Z,11.30
2019-02-28T16:21:17.419Z,11.30
2019-02-28T16:23:46.862Z,11.20
2019-02-28T16:26:18.290Z,11.20
2019-02-28T16:28:47.375Z,11.20
2019-02-28T16:31:18.690Z,11.20
2019-02-28T16:33:47.870Z,11.20
2019-02-28T16:36:17.263Z,11.20
2019-02-28T16:38:46.690Z,11.20
2019-02-28T16:41:16.084Z,11.20
2019-02-28T16:43:45.579Z,11.20
2019-02-28T16:46:15.615Z,11.20
2019-02-28T16:48:45.673Z,11.20
2019-02-28T16:51:15.083Z,11.20
2019-02-28T16:53:47.990Z,11.20
2019-02-28T16:56:16.070Z,11.20
2019-02-28T16:58:45.548Z,11.20
2019-02-28T17:01:17.594Z,11.20
2019-02-28T17:03:46.228Z,11.20
2019-02-28T17:06:15.960Z,11.10
2019-02-28T17:08:46.996Z,11.10
2019-02-28T17:11:18.182Z,11.10
2019-02-28T17:13:50.106Z,11.10
2019-02-28T17:16:21.106Z,11.10
2019-02-28T17:18:53.490Z,11.00
2019-02-28T17:21:21.807Z,11.00
2019-02-28T17:23:52.511Z,11.00
2019-02-28T17:26:23.608Z,11.00
2019-02-28T17:29:03.545Z,10.90
2019-02-28T17:31:40.315Z,10.90
2019-02-28T17:34:10.350Z,10.90
2019-02-28T17:36:39.807Z,10.90
2019-02-28T17:39:11.400Z,10.90
2019-02-28T17:41:41.656Z,11.00
2019-02-28T17:44:26.248Z,11.00
2019-02-28T17:47:11.700Z,11.00
2019-02-28T17:50:05.877Z,11.00
2019-02-28T17:53:03.182Z,11.00
2019-02-28T17:55:44.479Z,11.00
2019-02-28T18:01:42.522Z,10.90
2019-02-28T18:04:35.845Z,10.80
2019-02-28T18:07:23.667Z,10.70
2019-02-28T18:09:55.179Z,10.60
2019-02-28T18:12:53.672Z,10.50
2019-02-28T18:15:48.300Z,10.50
2019-02-28T18:18:46.217Z,10.40
2019-02-28T18:21:24.538Z,10.40
2019-02-28T18:24:03.752Z,10.30
2019-02-28T18:26:52.612Z,10.30
2019-02-28T18:29:31.161Z,10.20
2019-02-28T18:32:00.435Z,10.20
2019-02-28T18:34:30.246Z,10.20
2019-02-28T18:37:00.286Z,10.20
2019-02-28T18:39:29.761Z,10.20
2019-02-28T18:41:59.215Z,10.20
2019-02-28T18:44:33.050Z,10.20
2019-02-28T18:47:07.444Z,10.20
2019-02-28T18:49:37.149Z,10.20
2019-02-28T18:52:08.284Z,10.10
2019-02-28T18:54:40.987Z,10.10
2019-02-28T18:57:18.268Z,10.20
2019-02-28T18:59:47.955Z,10.20
2019-02-28T19:02:19.022Z,10.10
2019-02-28T19:04:48.521Z,10.10
2019-02-28T19:07:18.152Z,10.10
2019-02-28T19:09:47.563Z,10.10
2019-02-28T19:12:17.109Z,10.10
2019-02-28T19:14:46.664Z,10.10
2019-02-28T19:17:17.610Z,10.10
2019-02-28T19:19:47.208Z,10.10
2019-02-28T19:22:17.288Z,10.10
2019-02-28T19:24:46.644Z,10.10
2019-02-28T19:27:16.139Z,10.10
2019-02-28T19:29:46.032Z,10.10
2019-02-28T19:32:16.252Z,10.10
2019-02-28T19:34:45.929Z,10.10
2019-02-28T19:37:15.525Z,10.20
2019-02-28T19:39:44.954Z,10.10
2019-02-28T19:42:15.605Z,10.10
2019-02-28T19:44:45.137Z,10.20
2019-02-28T19:47:14.617Z,10.20
2019-02-28T19:49:44.908Z,10.20
2019-02-28T19:52:14.408Z,10.20
2019-02-28T19:54:43.794Z,10.20
2019-02-28T19:57:13.470Z,10.20
2019-02-28T19:59:42.942Z,10.20
2019-02-28T20:02:12.327Z,10.20
2019-02-28T20:04:41.829Z,10.20
2019-02-28T20:07:11.218Z,10.20
2019-02-28T20:09:40.660Z,10.20
2019-02-28T20:12:10.718Z,10.20
2019-02-28T20:14:40.413Z,10.10
2019-02-28T20:17:09.846Z,10.10
2019-02-28T20:19:39.299Z,10.10
2019-02-28T20:22:08.796Z,10.10
2019-02-28T20:24:38.316Z,10.20
2019-02-28T20:27:08.984Z,10.20
2019-02-28T20:29:38.466Z,10.20
2019-02-28T20:32:07.937Z,10.20
2019-02-28T20:34:37.386Z,10.20
2019-02-28T20:37:06.961Z,10.20
2019-02-28T20:39:36.475Z,10.20
2019-02-28T20:42:06.335Z,10.20
2019-02-28T20:44:35.787Z,10.20
2019-02-28T20:47:05.616Z,10.20
2019-02-28T20:49:34.984Z,10.20
2019-02-28T20:52:04.569Z,10.20
2019-02-28T20:54:35.148Z,10.20
2019-02-28T20:57:07.269Z,10.20
2019-02-28T20:59:37.821Z,10.20
2019-02-28T21:02:07.582Z,10.20
2019-02-28T21:04:37.218Z,10.20
2019-02-28T21:07:06.646Z,10.20
2019-02-28T21:09:44.893Z,10.10
2019-02-28T21:12:12.439Z,10.10
2019-02-28T21:14:42.080Z,10.10
2019-02-28T21:17:13.170Z,10.10
2019-02-28T21:19:44.262Z,10.10
2019-02-28T21:22:13.826Z,10.10
2019-02-28T21:24:45.503Z,10.00
2019-02-28T21:27:14.955Z,10.00
2019-02-28T21:29:44.557Z,10.00
2019-02-28T21:32:14.087Z,10.00
2019-02-28T21:34:43.726Z,10.10
2019-02-28T21:37:13.274Z,10.00
2019-02-28T21:39:44.827Z,10.00
2019-02-28T21:42:15.906Z,10.00
2019-02-28T21:44:45.464Z,10.00
2019-02-28T21:47:14.912Z,10.00
2019-02-28T21:49:44.340Z,10.00
2019-02-28T21:52:13.867Z,9.90
2019-02-28T21:54:43.269Z,9.90
2019-02-28T21:57:15.507Z,9.90
2019-02-28T21:59:44.882Z,9.90
2019-02-28T22:02:14.321Z,9.90
2019-02-28T22:04:43.924Z,9.90
2019-02-28T22:07:14.985Z,9.90
2019-02-28T22:09:44.354Z,10.00
2019-02-28T22:12:14.564Z,9.90
2019-02-28T22:14:44.122Z,9.90
2019-02-28T22:17:15.177Z,9.90
2019-02-28T22:19:46.094Z,9.90
2019-02-28T22:22:15.452Z,9.80
2019-02-28T22:24:44.806Z,9.80
2019-02-28T22:27:14.267Z,9.90
2019-02-28T22:29:43.705Z,9.80
2019-02-28T22:32:23.961Z,9.80
2019-02-28T22:34:47.439Z,9.80
2019-02-28T22:37:17.800Z,9.80
2019-02-28T22:39:47.156Z,9.80
2019-02-28T22:42:22.134Z,9.80
2019-02-28T22:44:48.765Z,9.70
2019-02-28T22:47:18.139Z,9.70
2019-02-28T22:49:48.628Z,9.70
2019-02-28T22:52:18.044Z,9.70
2019-02-28T22:54:47.435Z,9.70
2019-02-28T22:57:16.878Z,9.70
2019-02-28T22:59:46.342Z,9.70
2019-02-28T23:02:15.916Z,9.70
2019-02-28T23:04:45.327Z,9.80
2019-02-28T23:07:16.845Z,9.70
2019-02-28T23:09:47.344Z,9.80
2019-02-28T23:12:16.714Z,9.70
2019-02-28T23:14:48.478Z,9.70
2019-02-28T23:17:17.487Z,9.70
2019-02-28T23:19:46.752Z,9.70
2019-02-28T23:22:16.902Z,9.70
2019-02-28T23:24:49.419Z,9.70
2019-02-28T23:27:18.895Z,9.70
2019-02-28T23:29:51.359Z,9.60
2019-02-28T23:32:42.073Z,9.60
2019-02-28T23:35:14.591Z,9.60
2019-02-28T23:37:44.007Z,9.60
2019-02-28T23:40:13.353Z,9.60
2019-02-28T23:42:42.794Z,9.70
2019-02-28T23:45:12.223Z,9.70
2019-02-28T23:47:41.600Z,9.70
2019-02-28T23:50:11.040Z,9.70
2019-02-28T23:52:41.533Z,9.70
2019-02-28T23:55:12.110Z,9.60
2019-02-28T23:57:41.488Z,9.70
